ADDS METAR Data INFO
IDs: Format: Raw Decoded Include TAF

Data at: 0917 UTC 25 Feb 2018

KPSX 250910Z AUTO 12007KT 4SM BR BKN004 BKN010 BKN016 22/22 A2990 RMK AO2 T02220222
KPSX 250853Z AUTO 14014KT 3SM BR SCT007 BKN013 BKN018 22/22 A2989 RMK AO2 RAB12E23 PRESFR SLP121 P0000 60000 T02220222 58016
KPSX 250848Z AUTO 15010KT 3SM BR BKN007 OVC015 22/22 A2991 RMK AO2 RAB12E23 CIG 003V009 P0000
KPSX 250753Z AUTO 16005KT 4SM BR SCT020 BKN025 OVC031 22/22 A2993 RMK AO2 LTG DSNT N AND NE SLP136 T02220222
KPSX 250739Z AUTO 15005KT 4SM BR FEW005 BKN025 OVC031 22/22 A2993 RMK AO2 LTG DSNT N T02170217
KPSX 250714Z AUTO 00000KT 4SM BR SCT007 BKN014 OVC026 22/22 A2995 RMK AO2 LTG DSNT N AND NW T02220222
KPSX 250653Z AUTO 17005KT 4SM BR FEW007 BKN025 OVC029 22/22 A2994 RMK AO2 SLP137 T02220222 TSNO
KPSX 250638Z AUTO 17006KT 5SM BR SCT005 BKN014 OVC029 22/22 A2994 RMK AO2 LTG DSNT W AND NW T02170217
KPSX 250618Z AUTO 16006KT 5SM BR BKN006 OVC013 22/22 A2993 RMK AO2 CIG 004V009 T02220222
KPSX 250553Z AUTO 19006KT 5SM BR SCT007 BKN013 OVC021 22/22 A2995 RMK AO2 SLP140 T02220222 10233 20222 402610211 51010
KPSX 250529Z AUTO 19005KT 6SM BR OVC014 22/22 A2994 RMK AO2 T02220222
KPSX 250453Z AUTO 17009KT 6SM BR BKN014 BKN060 22/22 A2993 RMK AO2 PRESRR SLP136 T02220222
KPSX 250353Z AUTO 16010KT 6SM BR OVC013 23/22 A2992 RMK AO2 SLP131 T02280222
KPSX 250253Z AUTO 14014KT 6SM BR OVC013 22/22 A2988 RMK AO2 SLP118 T02220222 53002
KPSX 250153Z AUTO 15011KT 6SM BR OVC013 23/22 A2988 RMK AO2 SLP116 T02280222
KPSX 250124Z AUTO 15007KT 6SM BR FEW008 OVC014 23/22 A2988 RMK AO2 T02280222
KPSX 250117Z AUTO 15009KT 6SM BR BKN014 23/22 A2988 RMK AO2 T02280222
KPSX 250053Z AUTO 15010KT 7SM SCT016 BKN050 BKN065 23/22 A2988 RMK AO2 SLP116 T02280222
KPSX 242353Z AUTO 15009KT 6SM BR FEW021 BKN050 OVC065 23/22 A2987 RMK AO2 SLP115 T02330222 10261 20233 53006
KPSX 242348Z AUTO 16009KT 6SM BR SCT019 BKN050 OVC060 23/22 A2987 RMK AO2
KPSX 242323Z AUTO 16012KT 6SM BR BKN018 OVC065 24/22 A2986 RMK AO2 T02390222
KPSX 242253Z AUTO 16012KT 7SM FEW020 BKN050 OVC065 24/22 A2986 RMK AO2 SLP109 T02390222
KPSX 242233Z AUTO 16011KT 7SM FEW021 OVC055 24/22 A2986 RMK AO2 T02390222
KPSX 242153Z AUTO 16014G19KT 7SM OVC021 24/22 A2986 RMK AO2 SLP110 T02440222
KPSX 242053Z AUTO 17016KT 8SM FEW013 BKN026 OVC038 25/22 A2985 RMK AO2 SLP109 T02500222 58023
KPSX 241953Z AUTO 17016KT 9SM SCT014 BKN031 OVC037 26/22 A2988 RMK AO2 SLP119 T02560217
KPSX 241944Z AUTO 17016G23KT 9SM SCT014 BKN021 OVC037 26/22 A2989 RMK AO2 T02560217
KPSX 241853Z AUTO 16017KT 9SM OVC040 25/22 A2991 RMK AO2 PK WND 16026/1754 SLP127 T02500217
KPSX 241753Z AUTO 16019G26KT 9SM FEW013 FEW023 OVC035 26/22 A2992 RMK AO2 PK WND 16026/1753 SLP132 T02560217 10261 20211 58009
KPSX 241723Z AUTO 16019G24KT 9SM OVC032 25/22 A2995 RMK AO2 T02500217
KPSX 241653Z AUTO 16019G26KT 9SM OVC029 26/22 A2995 RMK AO2 PK WND 15027/1636 SLP141 T02560217
KPSX 241638Z AUTO 16019G27KT 9SM OVC028 26/22 A2994 RMK AO2 PK WND 15027/1636 T02560217
KPSX 241553Z AUTO 16016G22KT 8SM OVC030 24/22 A2995 RMK AO2 SLP142 T02390217
KPSX 241453Z AUTO 15015KT 7SM FEW017 BKN027 OVC031 23/22 A2995 RMK AO2 SLP141 T02330222 51002
KPSX 241406Z AUTO 15011KT 6SM BR BKN025 23/22 A2995 RMK AO2 T02280222
KPSX 241353Z AUTO 15013KT 5SM BR SCT025 22/22 A2995 RMK AO2 SLP141 T02220217
KPSX 241253Z AUTO 15008KT 6SM BR BKN027 21/21 A2996 RMK AO2 SLP146 T02110211
KPSX 241153Z AUTO 15007KT 6SM BR FEW020 BKN026 21/21 A2994 RMK AO2 SLP139 T02110211 10222 20211 55002
KPSX 241053Z AUTO 16011KT 6SM BR OVC023 22/22 A2994 RMK AO2 SLP137 T02170217
KPSX 240953Z AUTO 16013KT 6SM BR OVC020 22/22 A2993 RMK AO2 SLP135 T02170217
KPSX 240853Z AUTO 15013KT 6SM BR OVC019 22/22 A2995 RMK AO2 SLP141 T02170217 58014
KPSX 240753Z AUTO 16014KT 6SM BR OVC017 22/22 A2997 RMK AO2 SLP147 T02220217
KPSX 240653Z AUTO 15013KT 6SM BR OVC021 22/22 A2998 RMK AO2 SLP151 T02220222
KPSX 240553Z AUTO 15012KT 6SM BR OVC021 22/22 A2999 RMK AO2 SLP156 T02220222 10233 20217 402670128 58009
KPSX 240538Z AUTO 15012KT 5SM BR SCT004 OVC022 22/22 A3000 RMK AO2 T02170217
KPSX 240453Z AUTO 15012KT 3SM BR OVC002 22/22 A3001 RMK AO2 SLP161 T02170217
KPSX 240445Z AUTO 15013KT 4SM BR OVC002 22/22 A3001 RMK AO2 T02170217
KPSX 240433Z AUTO 15013KT 2 1/2SM BR OVC002 22/22 A3000 RMK AO2 T02170217
KPSX 240353Z AUTO 15013KT 4SM BR OVC003 22/22 A3002 RMK AO2 SLP164 T02220222
KPSX 240308Z AUTO 13014KT 3SM BR BKN003 OVC008 22/22 A3002 RMK AO2 T02220222
KPSX 240250Z AUTO 13014KT 5SM BR SCT004 BKN009 OVC016 22/22 A3002 RMK AO2 SLP164 T02220222 58003
KPSX 240249Z AUTO 13013KT 6SM BR SCT004 BKN009 OVC016 22/22 A3002 RMK AO2
KPSX 240225Z AUTO 14011KT 6SM BR SCT006 SCT009 OVC017 22/22 A3002 RMK AO2 T02220222
KPSX 240153Z AUTO 13011KT 6SM BR BKN005 OVC017 22/22 A3003 RMK AO2 SLP167 T02220222
KPSX 240136Z AUTO 13011KT 6SM BR BKN005 BKN014 OVC021 22/22 A3002 RMK AO2 T02220222
KPSX 240053Z AUTO 13011KT 7SM FEW006 SCT013 OVC022 22/22 A3003 RMK AO2 SLP167 T02220222
KPSX 232353Z AUTO 13012KT 8SM FEW011 BKN021 23/22 A3003 RMK AO2 SLP168 T02330222 10267 20233 56011
KPSX 232318Z AUTO 14014KT 9SM SCT012 BKN022 24/22 A3003 RMK AO2 T02440222
KPSX 232253Z AUTO 15015KT 10SM FEW012 24/22 A3004 RMK AO2 SLP171 T02440217
KPSX 232222Z AUTO 15015KT 9SM SCT017 24/22 A3004 RMK AO2 T02440217
KPSX 232153Z AUTO 15014G19KT 9SM SCT016 BKN021 24/22 A3005 RMK AO2 SLP174 T02440217